createdAt,value
2023-03-05T00:01:29.099Z,101910.69
2023-03-05T00:03:54.747Z,101908.66
2023-03-05T00:06:20.324Z,101899.84
2023-03-05T00:08:45.899Z,101899.94
2023-03-05T00:11:11.403Z,101904.56
2023-03-05T00:13:36.897Z,101899.34
2023-03-05T00:16:02.484Z,101898.22
2023-03-05T00:18:28.251Z,101889.31
2023-03-05T00:25:55.117Z,101895.28
2023-03-05T00:28:20.626Z,101894.41
2023-03-05T00:30:46.214Z,101893.59
2023-03-05T00:33:11.746Z,101892.94
2023-03-05T00:35:37.337Z,101890.09
2023-03-05T00:38:02.873Z,101892.19
2023-03-05T00:40:28.387Z,101891.88
2023-03-05T00:46:07.012Z,101888.69
2023-03-05T00:48:32.574Z,101893.00
2023-03-05T00:50:58.118Z,101893.28
2023-03-05T00:53:23.612Z,101886.34
2023-03-05T00:55:49.123Z,101882.69
2023-03-05T00:58:14.680Z,101878.38
2023-03-05T01:00:40.193Z,101876.03
2023-03-05T01:03:05.792Z,101875.53
2023-03-05T01:10:33.370Z,101867.16
2023-03-05T01:12:58.961Z,101854.47
2023-03-05T01:15:24.518Z,101858.75
2023-03-05T01:17:50.093Z,101864.91
2023-03-05T01:20:15.600Z,101864.72
2023-03-05T01:22:41.148Z,101866.31
2023-03-05T01:25:06.950Z,101854.69
2023-03-05T01:27:32.576Z,101851.25
2023-03-05T01:34:55.534Z,101845.97
2023-03-05T01:37:21.083Z,101847.72
2023-03-05T01:39:46.625Z,101845.81
2023-03-05T01:42:12.188Z,101838.63
2023-03-05T01:44:37.711Z,101827.94
2023-03-05T01:47:03.247Z,101830.56
2023-03-05T01:49:28.780Z,101819.06
2023-03-05T01:51:54.566Z,101817.50
2023-03-05T01:59:21.500Z,101813.19
2023-03-05T02:01:47.099Z,101813.84
2023-03-05T02:04:12.764Z,101799.66
2023-03-05T02:06:38.354Z,101804.22
2023-03-05T02:09:03.839Z,101809.75
2023-03-05T02:11:29.361Z,101804.97
2023-03-05T02:13:54.867Z,101799.59
2023-03-05T02:16:20.427Z,101802.22
2023-03-05T02:23:47.657Z,101782.53
2023-03-05T02:26:13.182Z,101788.69
2023-03-05T02:28:38.739Z,101788.59
2023-03-05T02:31:04.272Z,101765.47
2023-03-05T02:33:29.826Z,101775.63
2023-03-05T02:35:55.357Z,101773.00
2023-03-05T02:38:20.933Z,101764.06
2023-03-05T02:40:46.759Z,101759.34
2023-03-05T02:48:13.745Z,101757.69
2023-03-05T02:50:39.255Z,101753.38
2023-03-05T02:53:04.740Z,101753.31
2023-03-05T02:55:30.244Z,101741.63
2023-03-05T02:57:55.753Z,101744.38
2023-03-05T03:00:21.334Z,101736.81
2023-03-05T03:02:46.836Z,101735.22
2023-03-05T03:05:12.353Z,101746.84
2023-03-05T03:12:39.810Z,101735.03
2023-03-05T03:15:05.360Z,101732.34
2023-03-05T03:17:30.906Z,101727.63
2023-03-05T03:19:56.448Z,101724.38
2023-03-05T03:22:21.980Z,101723.47
2023-03-05T03:24:47.470Z,101718.75
2023-03-05T03:27:13.035Z,101716.22
2023-03-05T03:29:38.762Z,101716.97
2023-03-05T03:37:05.970Z,101711.25
2023-03-05T03:39:31.466Z,101708.63
2023-03-05T03:41:56.979Z,101714.38
2023-03-05T03:44:22.555Z,101702.66
2023-03-05T03:46:48.105Z,101711.78
2023-03-05T03:49:13.667Z,101701.34
2023-03-05T03:51:39.206Z,101701.19
2023-03-05T03:54:04.699Z,101688.44
2023-03-05T04:01:32.061Z,101688.44
2023-03-05T04:03:57.579Z,101689.38
2023-03-05T04:06:23.121Z,101690.13
2023-03-05T04:08:48.649Z,101693.06
2023-03-05T04:11:14.154Z,101686.56
2023-03-05T04:13:39.707Z,101679.44
2023-03-05T04:16:05.211Z,101683.78
2023-03-05T04:18:32.527Z,101680.16
2023-03-05T04:25:59.736Z,101677.13
2023-03-05T04:28:25.341Z,101680.81
2023-03-05T04:30:50.882Z,101684.38
2023-03-05T04:33:16.438Z,101675.06
2023-03-05T04:35:41.968Z,101677.25
2023-03-05T04:38:07.507Z,101663.00
2023-03-05T04:40:33.061Z,101671.44
2023-03-05T04:42:58.550Z,101662.28
2023-03-05T04:50:25.876Z,101657.25
2023-03-05T04:52:51.373Z,101664.97
2023-03-05T04:55:16.909Z,101657.50
2023-03-05T04:57:42.463Z,101651.78
2023-03-05T05:00:07.960Z,101644.59
2023-03-05T05:02:33.566Z,101652.66
2023-03-05T05:04:59.094Z,101644.31
2023-03-05T05:07:24.627Z,101648.56
2023-03-05T05:16:52.105Z,101636.47
2023-03-05T05:19:17.727Z,101634.69
2023-03-05T05:21:43.261Z,101629.25
2023-03-05T05:24:08.804Z,101628.34
2023-03-05T05:26:34.400Z,101630.88
2023-03-05T05:28:59.937Z,101626.56
2023-03-05T05:31:25.519Z,101620.03
2023-03-05T05:33:51.084Z,101621.78
2023-03-05T05:41:18.187Z,101616.56
2023-03-05T05:43:43.724Z,101616.47
2023-03-05T05:46:09.292Z,101620.28
2023-03-05T05:48:34.884Z,101625.50
2023-03-05T05:51:00.402Z,101619.16
2023-03-05T05:53:25.886Z,101615.41
2023-03-05T05:55:51.427Z,101607.25
2023-03-05T05:58:17.218Z,101606.63
2023-03-05T06:05:44.323Z,101608.50
2023-03-05T06:08:09.856Z,101613.13
2023-03-05T06:10:35.443Z,101610.59
2023-03-05T06:13:01.044Z,101604.22
2023-03-05T06:15:26.544Z,101607.75
2023-03-05T06:17:52.070Z,101613.13
2023-03-05T06:20:17.616Z,101607.69
2023-03-05T06:22:43.158Z,101609.38
2023-03-05T06:30:10.458Z,101608.66
2023-03-05T06:32:36.313Z,101612.22
2023-03-05T06:35:01.894Z,101610.59
2023-03-05T06:37:27.459Z,101608.72
2023-03-05T06:39:52.967Z,101612.72
2023-03-05T06:42:18.504Z,101612.88
2023-03-05T06:44:45.195Z,101611.34
2023-03-05T06:47:11.733Z,101606.84
2023-03-05T06:54:34.546Z,101607.75
2023-03-05T06:57:00.153Z,101605.06
2023-03-05T06:59:25.642Z,101599.06
2023-03-05T07:01:51.141Z,101601.47
2023-03-05T07:04:16.657Z,101594.41
2023-03-05T07:06:42.156Z,101603.13
2023-03-05T07:09:07.705Z,101602.13
2023-03-05T07:14:15.981Z,101603.13
2023-03-05T07:16:41.481Z,101604.81
2023-03-05T07:19:07.016Z,101608.25
2023-03-05T07:21:32.518Z,101602.63
2023-03-05T07:23:58.108Z,101594.97
2023-03-05T07:26:23.619Z,101601.91
2023-03-05T07:28:49.175Z,101604.09
2023-03-05T07:34:27.893Z,101596.22
2023-03-05T07:36:53.400Z,101607.25
2023-03-05T07:39:18.937Z,101611.19
2023-03-05T07:41:44.549Z,101614.59
2023-03-05T07:44:10.059Z,101613.44
2023-03-05T07:46:35.696Z,101605.72
2023-03-05T07:49:01.236Z,101610.59
2023-03-05T07:54:04.421Z,101605.53
2023-03-05T07:56:29.973Z,101607.03
2023-03-05T07:58:55.616Z,101604.31
2023-03-05T08:01:21.150Z,101609.13
2023-03-05T08:03:46.687Z,101600.41
2023-03-05T08:06:12.258Z,101596.25
2023-03-05T08:08:37.819Z,101600.75
2023-03-05T08:11:04.386Z,101599.38
2023-03-05T08:18:32.109Z,101601.34
2023-03-05T08:20:57.605Z,101595.44
2023-03-05T08:23:23.088Z,101592.34
2023-03-05T08:25:48.643Z,101585.53
2023-03-05T08:28:14.175Z,101585.19
2023-03-05T08:30:39.665Z,101587.06
2023-03-05T08:33:05.170Z,101587.41
2023-03-05T08:35:30.712Z,101582.16
2023-03-05T08:42:58.248Z,101587.22
2023-03-05T08:45:23.898Z,101576.47
2023-03-05T08:47:49.392Z,101584.28
2023-03-05T08:50:15.013Z,101575.50
2023-03-05T08:52:40.505Z,101580.44
2023-03-05T08:55:06.029Z,101581.22
2023-03-05T08:57:31.555Z,101569.34
2023-03-05T08:59:57.416Z,101575.66
2023-03-05T09:07:24.352Z,101576.09
2023-03-05T09:09:49.900Z,101571.56
2023-03-05T09:12:15.448Z,101558.13
2023-03-05T09:14:41.017Z,101565.50
2023-03-05T09:17:06.507Z,101572.72
2023-03-05T09:19:32.055Z,101562.81
2023-03-05T09:21:57.602Z,101564.81
2023-03-05T09:24:23.429Z,101558.00
2023-03-05T09:31:53.063Z,101565.06
2023-03-05T09:34:18.591Z,101559.34
2023-03-05T09:36:44.105Z,101556.06
2023-03-05T09:39:09.667Z,101554.72
2023-03-05T09:41:35.276Z,101550.28
2023-03-05T09:44:00.799Z,101544.47
2023-03-05T09:46:26.355Z,101541.47
2023-03-05T09:48:51.849Z,101539.31
2023-03-05T09:56:18.869Z,101529.00
2023-03-05T09:58:44.408Z,101532.91
2023-03-05T10:01:09.917Z,101518.81
2023-03-05T10:03:35.516Z,101518.13
2023-03-05T10:06:01.112Z,101511.88
2023-03-05T10:08:26.620Z,101509.22
2023-03-05T10:10:52.111Z,101510.63
2023-03-05T10:15:57.073Z,101500.56
2023-03-05T10:18:22.551Z,101496.44
2023-03-05T10:20:48.108Z,101498.44
2023-03-05T10:23:13.663Z,101496.28
2023-03-05T10:25:39.199Z,101492.72
2023-03-05T10:28:04.745Z,101490.03
2023-03-05T10:30:30.259Z,101490.13
2023-03-05T10:35:44.988Z,101484.69
2023-03-05T10:38:10.558Z,101478.50
2023-03-05T10:40:36.088Z,101479.81
2023-03-05T10:43:01.605Z,101479.19
2023-03-05T10:45:27.130Z,101478.44
2023-03-05T10:47:52.659Z,101478.59
2023-03-05T10:50:18.246Z,101479.69
2023-03-05T10:52:44.078Z,101477.34
2023-03-05T11:00:10.979Z,101468.88
2023-03-05T11:02:36.571Z,101474.16
2023-03-05T11:05:04.178Z,101474.59
2023-03-05T11:07:30.640Z,101468.41
2023-03-05T11:09:56.141Z,101465.53
2023-03-05T11:12:21.676Z,101458.16
2023-03-05T11:14:47.201Z,101454.94
2023-03-05T11:17:12.933Z,101459.28
2023-03-05T11:24:40.268Z,101448.16
2023-03-05T11:27:05.793Z,101454.53
2023-03-05T11:29:31.292Z,101448.06
2023-03-05T11:31:56.830Z,101453.56
2023-03-05T11:34:22.330Z,101445.19
2023-03-05T11:36:47.830Z,101446.16
2023-03-05T11:39:13.415Z,101439.81
2023-03-05T11:41:38.941Z,101436.28
2023-03-05T11:49:06.395Z,101432.31
2023-03-05T11:51:31.984Z,101427.72
2023-03-05T11:53:57.491Z,101421.31
2023-03-05T11:56:23.003Z,101418.25
2023-03-05T11:58:48.519Z,101413.94
2023-03-05T12:01:14.047Z,101411.34
2023-03-05T12:03:39.633Z,101417.53
2023-03-05T12:06:05.379Z,101405.84
2023-03-05T12:13:32.521Z,101394.38
2023-03-05T12:15:58.038Z,101394.88
2023-03-05T12:18:23.556Z,101390.56
2023-03-05T12:20:49.189Z,101383.13
2023-03-05T12:23:14.746Z,101374.03
2023-03-05T12:25:40.241Z,101373.44
2023-03-05T12:28:05.745Z,101364.53
2023-03-05T12:30:31.515Z,101364.88
2023-03-05T12:37:58.610Z,101351.16
2023-03-05T12:40:24.104Z,101347.69
2023-03-05T12:42:49.633Z,101340.66
2023-03-05T12:45:15.145Z,101342.59
2023-03-05T12:47:40.751Z,101333.63
2023-03-05T12:50:06.306Z,101336.81
2023-03-05T12:52:31.808Z,101322.94
2023-03-05T12:54:57.640Z,101318.63
2023-03-05T13:02:24.719Z,101299.06
2023-03-05T13:04:50.244Z,101299.16
2023-03-05T13:07:15.721Z,101292.81
2023-03-05T13:09:41.269Z,101295.59
2023-03-05T13:12:06.808Z,101293.59
2023-03-05T13:14:32.400Z,101284.63
2023-03-05T13:16:57.917Z,101278.06
2023-03-05T13:19:23.649Z,101274.34
2023-03-05T13:26:50.809Z,101270.50
2023-03-05T13:29:16.303Z,101263.66
2023-03-05T13:31:41.857Z,101256.16
2023-03-05T13:34:07.362Z,101255.38
2023-03-05T13:36:32.892Z,101255.00
2023-03-05T13:38:58.380Z,101242.69
2023-03-05T13:41:23.861Z,101242.78
2023-03-05T13:43:49.582Z,101235.22
2023-03-05T13:51:16.912Z,101229.63
2023-03-05T13:53:42.434Z,101223.03
2023-03-05T13:56:07.967Z,101218.41
2023-03-05T13:58:33.473Z,101208.13
2023-03-05T14:00:58.956Z,101215.91
2023-03-05T14:03:24.484Z,101202.81
2023-03-05T14:05:50.090Z,101204.94
2023-03-05T14:08:15.914Z,101203.97
2023-03-05T14:15:43.064Z,101188.00
2023-03-05T14:18:08.569Z,101185.09
2023-03-05T14:20:34.060Z,101186.06
2023-03-05T14:22:59.585Z,101180.56
2023-03-05T14:25:25.122Z,101184.06
2023-03-05T14:27:50.611Z,101172.28
2023-03-05T14:30:16.099Z,101167.00
2023-03-05T14:32:41.736Z,101160.16
2023-03-05T14:40:09.122Z,101149.47
2023-03-05T14:42:36.395Z,101143.22
2023-03-05T14:45:03.110Z,101135.59
2023-03-05T14:47:28.620Z,101136.47
2023-03-05T14:49:54.105Z,101125.41
2023-03-05T14:52:19.611Z,101123.28
2023-03-05T14:54:45.169Z,101125.78
2023-03-05T14:57:10.911Z,101113.94
2023-03-05T15:04:38.582Z,101103.34
2023-03-05T15:07:04.084Z,101093.84
2023-03-05T15:09:29.603Z,101100.38
2023-03-05T15:11:55.138Z,101090.22
2023-03-05T15:14:20.683Z,101085.56
2023-03-05T15:16:46.255Z,101085.56
2023-03-05T15:19:11.854Z,101080.94
2023-03-05T15:21:37.361Z,101069.78
2023-03-05T15:29:04.550Z,101061.91
2023-03-05T15:31:30.219Z,101059.22
2023-03-05T15:33:55.839Z,101062.59
2023-03-05T15:36:21.342Z,101060.75
2023-03-05T15:38:46.882Z,101061.59
2023-03-05T15:41:12.429Z,101053.94
2023-03-05T15:43:38.004Z,101055.38
2023-03-05T15:46:03.577Z,101048.28
2023-03-05T15:53:30.681Z,101043.34
2023-03-05T15:55:56.187Z,101044.59
2023-03-05T15:58:21.710Z,101041.25
2023-03-05T16:00:47.227Z,101042.22
2023-03-05T16:03:12.781Z,101044.22
2023-03-05T16:05:38.296Z,101041.53
2023-03-05T16:08:03.830Z,101032.00
2023-03-05T16:10:29.328Z,101035.75
2023-03-05T16:17:56.803Z,101025.63
2023-03-05T16:20:22.302Z,101019.22
2023-03-05T16:22:47.776Z,101022.47
2023-03-05T16:25:13.281Z,101008.78
2023-03-05T16:27:38.826Z,101003.59
2023-03-05T16:30:04.325Z,101006.78
2023-03-05T16:32:29.845Z,101005.84
2023-03-05T16:34:55.604Z,100999.22
2023-03-05T16:42:22.908Z,100995.16
2023-03-05T16:44:48.406Z,100993.63
2023-03-05T16:47:13.934Z,100994.09
2023-03-05T16:49:39.482Z,100988.63
2023-03-05T16:52:16.416Z,100993.94
2023-03-05T16:54:43.466Z,100985.69
2023-03-05T16:57:08.981Z,100975.00
2023-03-05T16:59:34.526Z,100975.78
2023-03-05T17:07:01.848Z,100959.81
2023-03-05T17:09:27.447Z,100949.34
2023-03-05T17:11:53.050Z,100943.84
2023-03-05T17:14:18.595Z,100943.75
2023-03-05T17:16:44.172Z,100940.00
2023-03-05T17:19:09.727Z,100947.09
2023-03-05T17:21:35.304Z,100942.34
2023-03-05T17:24:01.146Z,100945.13
2023-03-05T17:31:27.909Z,100938.75
2023-03-05T17:33:53.394Z,100942.91
2023-03-05T17:36:18.933Z,100943.38
2023-03-05T17:38:44.511Z,100947.91
2023-03-05T17:41:10.057Z,100940.88
2023-03-05T17:43:35.635Z,100949.47
2023-03-05T17:46:01.177Z,100950.19
2023-03-05T17:48:26.730Z,100952.81
2023-03-05T17:55:54.028Z,100947.69
2023-03-05T17:58:19.543Z,100950.69
2023-03-05T18:00:45.173Z,100940.03
2023-03-05T18:03:10.707Z,100946.34
2023-03-05T18:05:36.226Z,100932.91
2023-03-05T18:08:01.739Z,100934.34
2023-03-05T18:10:27.289Z,100932.22
2023-03-05T18:12:52.825Z,100934.16
2023-03-05T18:20:20.127Z,100930.88
2023-03-05T18:22:45.636Z,100937.59
2023-03-05T18:25:11.127Z,100931.09
2023-03-05T18:27:36.640Z,100927.31
2023-03-05T18:30:02.150Z,100936.25
2023-03-05T18:32:27.854Z,100924.72
2023-03-05T18:34:53.413Z,100934.53
2023-03-05T18:37:18.905Z,100927.31
2023-03-05T18:44:46.345Z,100915.59
2023-03-05T18:47:11.867Z,100922.50
2023-03-05T18:49:37.364Z,100915.41
2023-03-05T18:52:02.872Z,100917.31
2023-03-05T18:54:28.417Z,100913.66
2023-03-05T18:56:53.985Z,100914.53
2023-03-05T18:59:19.536Z,100908.94
2023-03-05T19:01:45.314Z,100905.41
2023-03-05T19:09:12.411Z,100898.50
2023-03-05T19:11:37.945Z,100910.13
2023-03-05T19:14:03.451Z,100910.22
2023-03-05T19:16:28.984Z,100903.00
2023-03-05T19:18:54.536Z,100909.91
2023-03-05T19:21:20.077Z,100902.03
2023-03-05T19:23:45.561Z,100907.44
2023-03-05T19:26:11.045Z,100900.34
2023-03-05T19:33:38.530Z,100894.94
2023-03-05T19:36:04.004Z,100901.94
2023-03-05T19:38:29.515Z,100896.56
2023-03-05T19:40:55.048Z,100892.84
2023-03-05T19:43:20.580Z,100897.03
2023-03-05T19:45:46.117Z,100904.38
2023-03-05T19:48:11.684Z,100895.72
2023-03-05T19:53:21.565Z,100892.94
2023-03-05T19:55:47.052Z,100888.69
2023-03-05T19:58:12.592Z,100891.47
2023-03-05T20:00:38.082Z,100882.16
2023-03-05T20:03:03.563Z,100880.91
2023-03-05T20:05:29.044Z,100878.34
2023-03-05T20:07:54.610Z,100871.13
2023-03-05T20:10:20.143Z,100861.31
2023-03-05T20:17:47.652Z,100856.78
2023-03-05T20:20:13.142Z,100854.88
2023-03-05T20:22:38.630Z,100847.97
2023-03-05T20:25:04.102Z,100845.44
2023-03-05T20:27:29.598Z,100854.00
2023-03-05T20:29:55.136Z,100845.91
2023-03-05T20:32:20.708Z,100844.00
2023-03-05T20:34:46.467Z,100840.53
2023-03-05T20:42:13.780Z,100834.97
2023-03-05T20:44:39.308Z,100829.59
2023-03-05T20:47:04.886Z,100824.38
2023-03-05T20:49:30.465Z,100825.06
2023-03-05T20:51:56.007Z,100820.97
2023-03-05T20:54:21.542Z,100820.84
2023-03-05T20:56:47.019Z,100821.06
2023-03-05T20:59:12.798Z,100814.13
2023-03-05T21:06:39.884Z,100807.13
2023-03-05T21:09:05.426Z,100810.97
2023-03-05T21:11:30.954Z,100806.75
2023-03-05T21:13:56.523Z,100795.34
2023-03-05T21:16:22.092Z,100800.63
2023-03-05T21:18:47.594Z,100792.34
2023-03-05T21:21:13.135Z,100791.38
2023-03-05T21:23:38.671Z,100795.63
2023-03-05T21:33:26.329Z,100793.69
2023-03-05T21:35:51.865Z,100791.00
2023-03-05T21:38:17.396Z,100790.81
2023-03-05T21:40:42.882Z,100778.44
2023-03-05T21:43:08.408Z,100775.84
2023-03-05T21:45:33.990Z,100771.41
2023-03-05T21:47:59.539Z,100765.34
2023-03-05T21:50:25.062Z,100768.50
2023-03-05T21:57:52.424Z,100754.31
2023-03-05T22:00:17.972Z,100750.75
2023-03-05T22:02:43.456Z,100738.09
2023-03-05T22:05:08.941Z,100731.84
2023-03-05T22:07:34.463Z,100724.53
2023-03-05T22:09:59.958Z,100720.97
2023-03-05T22:12:25.489Z,100721.75
2023-03-05T22:14:51.280Z,100725.31
2023-03-05T22:22:18.512Z,100711.41
2023-03-05T22:24:44.001Z,100715.44
2023-03-05T22:27:09.529Z,100702.97
2023-03-05T22:29:35.121Z,100710.16
2023-03-05T22:32:00.658Z,100707.88
2023-03-05T22:34:26.222Z,100709.03
2023-03-05T22:36:51.754Z,100702.13
2023-03-05T22:39:17.502Z,100697.81
2023-03-05T22:46:44.585Z,100706.13
2023-03-05T22:49:10.070Z,100699.03
2023-03-05T22:51:35.592Z,100695.94
2023-03-05T22:54:01.131Z,100698.75
2023-03-05T22:56:26.653Z,100691.66
2023-03-05T22:58:52.151Z,100697.66
2023-03-05T23:01:17.687Z,100689.53
2023-03-05T23:03:43.578Z,100696.63
2023-03-05T23:11:10.791Z,100676.97
2023-03-05T23:13:36.293Z,100672.75
2023-03-05T23:16:01.910Z,100675.53
2023-03-05T23:18:27.540Z,100677.19
2023-03-05T23:20:53.154Z,100673.06
2023-03-05T23:23:18.646Z,100671.81
2023-03-05T23:25:44.137Z,100678.38
2023-03-05T23:28:09.847Z,100682.75
2023-03-05T23:35:36.880Z,100669.31
2023-03-05T23:38:02.415Z,100678.63
2023-03-05T23:40:27.964Z,100665.75
2023-03-05T23:42:53.551Z,100668.34
2023-03-05T23:45:19.089Z,100670.56
2023-03-05T23:47:44.671Z,100660.28
2023-03-05T23:50:10.201Z,100659.56
2023-03-05T23:52:35.731Z,100657.50
